Time;durP1;ratioP1;P1;durP2;ratioP2;P2;SDS_P1;SDS_P2;PMS_P1;PMS_P2;Temp;Humidity;BMP_temperature;BMP_pressure;BME280_temperature;BME280_humidity;BME280_pressure;Samples;Min_cycle;Max_cycle;Signal;HPM_P1;HPM_P2
2021/10/12 00:02:23;;;;;;;3.60;2.45;;;;;;;;;;4998137;28;20208;-82
2021/10/12 00:04:50;;;;;;;3.58;2.90;;;;;;;;;;4997907;28;20227;-82
2021/10/12 00:07:18;;;;;;;5.85;2.58;;;;;;;;;;4997769;28;20228;-82
2021/10/12 00:09:45;;;;;;;3.47;2.25;;;;;;;;;;4997753;28;20199;-82
2021/10/12 00:12:13;;;;;;;2.50;2.00;;;;;;;;;;4997746;28;20200;-82
2021/10/12 00:14:40;;;;;;;2.20;2.10;;;;;;;;;;4997936;28;20241;-82
2021/10/12 00:17:08;;;;;;;2.83;2.60;;;;;;;;;;4998058;28;20223;-82
2021/10/12 00:19:37;;;;;;;3.10;2.47;;;;;;;;;;4998059;28;20215;-82
2021/10/12 00:22:04;;;;;;;3.42;3.13;;;;;;;;;;4977547;28;20201;-81
2021/10/12 00:24:32;;;;;;;4.70;3.17;;;;;;;;;;4986233;28;20204;-82
2021/10/12 00:27:00;;;;;;;3.13;2.83;;;;;;;;;;4997510;28;20194;-82
2021/10/12 00:29:27;;;;;;;4.00;3.00;;;;;;;;;;4998363;28;20191;-83
2021/10/12 00:31:55;;;;;;;2.75;2.47;;;;;;;;;;4997778;28;20199;-82
2021/10/12 00:34:22;;;;;;;3.78;2.38;;;;;;;;;;4997716;28;20203;-82
2021/10/12 00:36:51;;;;;;;2.30;2.20;;;;;;;;;;4997362;28;20678;-81
2021/10/12 00:39:19;;;;;;;3.42;3.10;;;;;;;;;;4997208;28;20214;-82
2021/10/12 00:41:47;;;;;;;2.45;2.25;;;;;;;;;;4997739;28;20188;-82
2021/10/12 00:44:14;;;;;;;4.15;2.45;;;;;;;;;;4987933;28;20213;-82
2021/10/12 00:46:42;;;;;;;3.75;2.20;;;;;;;;;;4977646;28;20671;-83
2021/10/12 00:49:10;;;;;;;4.03;2.72;;;;;;;;;;4974944;28;20211;-81
2021/10/12 00:51:38;;;;;;;3.72;2.20;;;;;;;;;;4957360;29;20730;-82
2021/10/12 00:54:06;;;;;;;4.93;2.80;;;;;;;;;;4958372;29;20205;-82
2021/10/12 00:56:34;;;;;;;1.80;1.70;;;;;;;;;;4958093;29;20200;-82
2021/10/12 00:59:03;;;;;;;2.72;2.25;;;;;;;;;;4958301;29;20234;-82
2021/10/12 01:01:34;;;;;;;3.92;2.00;;;;;;;;;;4958441;28;20610;-82
2021/10/12 01:04:01;;;;;;;2.50;2.30;;;;;;;;;;4958166;29;20679;-80
2021/10/12 01:06:29;;;;;;;4.20;2.30;;;;;;;;;;4957348;29;20205;-81
2021/10/12 01:08:56;;;;;;;1.95;1.75;;;;;;;;;;4957924;29;20232;-82
2021/10/12 01:11:25;;;;;;;4.90;2.08;;;;;;;;;;4957978;29;20189;-82
2021/10/12 01:13:53;;;;;;;3.45;1.80;;;;;;;;;;4949784;29;20208;-82
2021/10/12 01:16:20;;;;;;;2.33;1.83;;;;;;;;;;4938455;29;20652;-82
2021/10/12 01:18:57;;;;;;;3.33;2.33;;;;;;;;;;4938889;29;20248;-83
2021/10/12 01:21:27;;;;;;;2.22;1.67;;;;;;;;;;4938630;29;20200;-82
2021/10/12 01:23:57;;;;;;;3.35;1.40;;;;;;;;;;4939429;29;20194;-82
2021/10/12 01:26:25;;;;;;;2.05;1.58;;;;;;;;;;4938833;29;20637;-82
2021/10/12 01:28:52;;;;;;;1.75;1.45;;;;;;;;;;4938806;29;20265;-82
2021/10/12 01:31:23;;;;;;;1.50;1.40;;;;;;;;;;4938876;29;20198;-82
2021/10/12 01:33:50;;;;;;;2.25;1.40;;;;;;;;;;4938230;29;20273;-82
2021/10/12 01:36:18;;;;;;;3.72;2.22;;;;;;;;;;4938908;29;20226;-82
2021/10/12 01:38:48;;;;;;;1.80;1.70;;;;;;;;;;4940264;28;20227;-82
2021/10/12 01:41:15;;;;;;;3.00;1.75;;;;;;;;;;4956678;29;20191;-82
2021/10/12 01:43:43;;;;;;;3.38;1.83;;;;;;;;;;4957278;29;20194;-82
2021/10/12 01:46:11;;;;;;;1.77;1.67;;;;;;;;;;4957583;29;20205;-82
2021/10/12 01:48:39;;;;;;;1.48;1.38;;;;;;;;;;4957579;29;20580;-82
2021/10/12 01:51:06;;;;;;;3.70;1.73;;;;;;;;;;4955422;28;20211;-82
2021/10/12 01:53:34;;;;;;;3.10;2.20;;;;;;;;;;4956705;28;20208;-82
2021/10/12 01:56:04;;;;;;;1.80;1.70;;;;;;;;;;4976532;28;20581;-82
2021/10/12 01:58:32;;;;;;;7.65;1.88;;;;;;;;;;4976202;28;20236;-82
2021/10/12 02:00:59;;;;;;;2.30;2.10;;;;;;;;;;4976359;28;20695;-82
2021/10/12 02:03:27;;;;;;;4.57;1.77;;;;;;;;;;4976526;28;20184;-82
2021/10/12 02:05:54;;;;;;;2.70;1.80;;;;;;;;;;4976058;28;20185;-83
2021/10/12 02:08:22;;;;;;;2.28;2.08;;;;;;;;;;4962300;28;20229;-82
2021/10/12 02:10:49;;;;;;;3.92;2.30;;;;;;;;;;4956466;29;20215;-82
2021/10/12 02:13:18;;;;;;;2.22;2.03;;;;;;;;;;4955985;28;20201;-83
2021/10/12 02:15:46;;;;;;;3.17;2.05;;;;;;;;;;4956525;29;20200;-82
2021/10/12 02:18:13;;;;;;;2.13;1.95;;;;;;;;;;4956285;29;20229;-82
2021/10/12 02:20:40;;;;;;;1.88;1.63;;;;;;;;;;4955704;29;20227;-82
2021/10/12 02:23:08;;;;;;;4.38;2.00;;;;;;;;;;4956669;29;20583;-82
2021/10/12 02:25:35;;;;;;;4.47;2.25;;;;;;;;;;4955994;29;20618;-82
2021/10/12 02:28:03;;;;;;;2.60;2.30;;;;;;;;;;4975179;28;20220;-82
2021/10/12 02:30:32;;;;;;;1.80;1.70;;;;;;;;;;4974569;28;20193;-82
2021/10/12 02:32:59;;;;;;;1.88;1.77;;;;;;;;;;4975567;28;20260;-81
2021/10/12 02:35:27;;;;;;;2.13;1.83;;;;;;;;;;4976260;28;20214;-82
2021/10/12 02:37:55;;;;;;;2.92;2.47;;;;;;;;;;4975575;28;20311;-82
2021/10/12 02:40:22;;;;;;;2.38;1.92;;;;;;;;;;4975335;28;20694;-82
2021/10/12 02:42:50;;;;;;;3.05;2.03;;;;;;;;;;4975730;28;20200;-82
2021/10/12 02:45:18;;;;;;;2.47;2.03;;;;;;;;;;4975877;28;20191;-82
2021/10/12 02:47:47;;;;;;;4.03;2.88;;;;;;;;;;4974768;28;20230;-81
2021/10/12 02:50:14;;;;;;;2.22;2.05;;;;;;;;;;4975072;28;20189;-82
2021/10/12 02:52:42;;;;;;;2.38;1.80;;;;;;;;;;4990365;28;20234;-82
2021/10/12 02:55:10;;;;;;;3.40;2.42;;;;;;;;;;4994728;28;20195;-82
2021/10/12 02:57:37;;;;;;;1.80;1.58;;;;;;;;;;4993781;28;20215;-82
2021/10/12 03:00:08;;;;;;;4.38;1.95;;;;;;;;;;4994311;28;20211;-82
2021/10/12 03:02:36;;;;;;;2.13;1.90;;;;;;;;;;4993625;28;20635;-82
2021/10/12 03:05:05;;;;;;;3.08;2.30;;;;;;;;;;4994400;28;20195;-82
2021/10/12 03:07:33;;;;;;;2.67;1.85;;;;;;;;;;4993994;28;20255;-82
2021/10/12 03:10:02;;;;;;;2.25;1.45;;;;;;;;;;4994336;28;20674;-82
2021/10/12 03:12:30;;;;;;;1.90;1.40;;;;;;;;;;4994521;28;20271;-82
2021/10/12 03:14:57;;;;;;;1.92;1.50;;;;;;;;;;4992994;28;20204;-82
2021/10/12 03:17:25;;;;;;;3.13;1.70;;;;;;;;;;4992906;28;20223;-81
2021/10/12 03:19:55;;;;;;;1.55;1.45;;;;;;;;;;4991857;28;20212;-82
2021/10/12 03:22:24;;;;;;;2.03;1.70;;;;;;;;;;4992825;28;20210;-82
2021/10/12 03:24:53;;;;;;;2.28;1.40;;;;;;;;;;4992053;28;20195;-81
2021/10/12 03:27:21;;;;;;;1.77;1.40;;;;;;;;;;4993261;28;20227;-81
2021/10/12 03:29:48;;;;;;;2.45;1.40;;;;;;;;;;4992582;28;20217;-81
2021/10/12 03:32:16;;;;;;;1.77;1.15;;;;;;;;;;4991683;28;20207;-82
2021/10/12 03:34:43;;;;;;;1.70;1.60;;;;;;;;;;4976930;28;20226;-82
2021/10/12 03:37:11;;;;;;;1.52;1.42;;;;;;;;;;4972560;28;20286;-83
2021/10/12 03:39:40;;;;;;;1.95;1.65;;;;;;;;;;4974021;28;20204;-83
2021/10/12 03:42:08;;;;;;;2.47;1.60;;;;;;;;;;4974107;28;20231;-82
2021/10/12 03:44:35;;;;;;;1.50;1.40;;;;;;;;;;4973514;28;20188;-81
2021/10/12 03:47:03;;;;;;;2.10;1.30;;;;;;;;;;4972615;28;20204;-82
2021/10/12 03:49:30;;;;;;;1.10;1.10;;;;;;;;;;4973226;28;20308;-82
2021/10/12 03:51:58;;;;;;;1.20;1.10;;;;;;;;;;4973498;28;20239;-81
2021/10/12 03:54:25;;;;;;;1.25;1.15;;;;;;;;;;4973430;28;20212;-81
2021/10/12 03:56:54;;;;;;;3.35;1.40;;;;;;;;;;4972727;28;20208;-82
2021/10/12 03:59:21;;;;;;;1.30;1.20;;;;;;;;;;4972967;28;20204;-81
2021/10/12 04:01:49;;;;;;;1.85;1.60;;;;;;;;;;4973388;28;20675;-81
2021/10/12 04:04:16;;;;;;;1.30;1.20;;;;;;;;;;4973864;28;20178;-81
2021/10/12 04:06:44;;;;;;;1.63;1.52;;;;;;;;;;4973203;28;20208;-81
2021/10/12 04:09:12;;;;;;;1.58;1.30;;;;;;;;;;4962218;28;20583;-81
2021/10/12 04:11:40;;;;;;;1.42;1.25;;;;;;;;;;4954055;29;20201;-81
2021/10/12 04:14:08;;;;;;;1.50;1.40;;;;;;;;;;4954266;29;20209;-81
2021/10/12 04:16:36;;;;;;;1.05;1.05;;;;;;;;;;4952693;29;20213;-81
2021/10/12 04:19:05;;;;;;;1.90;1.30;;;;;;;;;;4953692;29;20288;-81
2021/10/12 04:21:32;;;;;;;2.00;1.90;;;;;;;;;;4953854;29;20288;-81
2021/10/12 04:23:59;;;;;;;1.80;1.65;;;;;;;;;;4953744;29;20552;-81
2021/10/12 04:26:27;;;;;;;1.48;1.30;;;;;;;;;;4972096;28;20189;-81
2021/10/12 04:28:55;;;;;;;1.38;1.27;;;;;;;;;;4992350;28;20226;-81
2021/10/12 04:31:24;;;;;;;2.33;1.60;;;;;;;;;;4992700;28;20191;-81
2021/10/12 04:33:51;;;;;;;3.17;1.40;;;;;;;;;;4992514;28;20199;-81
2021/10/12 04:36:19;;;;;;;2.60;1.40;;;;;;;;;;4994728;28;20200;-81
2021/10/12 04:38:46;;;;;;;1.20;1.10;;;;;;;;;;4995834;28;20235;-81
2021/10/12 04:41:14;;;;;;;2.40;1.55;;;;;;;;;;4995617;28;20223;-81
2021/10/12 04:43:42;;;;;;;2.40;1.90;;;;;;;;;;4995713;28;20203;-81
2021/10/12 04:46:10;;;;;;;1.17;1.10;;;;;;;;;;4996246;28;20204;-81
2021/10/12 04:48:38;;;;;;;1.40;1.00;;;;;;;;;;4995847;28;20246;-81
2021/10/12 04:51:06;;;;;;;1.60;1.48;;;;;;;;;;4997620;28;20207;-81
2021/10/12 04:53:33;;;;;;;1.10;1.00;;;;;;;;;;4997779;28;20210;-81
2021/10/12 04:56:01;;;;;;;1.10;1.10;;;;;;;;;;4995450;28;20207;-81
2021/10/12 04:58:28;;;;;;;1.30;0.98;;;;;;;;;;4995159;28;20228;-81
2021/10/12 05:00:59;;;;;;;3.53;1.25;;;;;;;;;;4995793;28;20212;-81
2021/10/12 05:03:27;;;;;;;2.72;1.35;;;;;;;;;;4995722;28;20199;-81
2021/10/12 05:05:55;;;;;;;1.85;1.60;;;;;;;;;;4996247;28;20184;-81
2021/10/12 05:08:23;;;;;;;1.88;1.77;;;;;;;;;;4995617;28;20219;-81
2021/10/12 05:10:50;;;;;;;1.40;1.10;;;;;;;;;;4995602;28;20207;-81
2021/10/12 05:13:18;;;;;;;2.30;1.55;;;;;;;;;;4995744;28;20195;-82
2021/10/12 05:15:49;;;;;;;1.90;1.27;;;;;;;;;;4995410;28;20646;-81
2021/10/12 05:18:20;;;;;;;1.55;1.45;;;;;;;;;;4995472;28;20227;-80
2021/10/12 05:20:48;;;;;;;1.38;1.17;;;;;;;;;;4995106;28;20188;-81
2021/10/12 05:23:17;;;;;;;2.88;2.10;;;;;;;;;;4995205;28;20559;-81
2021/10/12 05:25:47;;;;;;;1.33;1.23;;;;;;;;;;4967101;28;20214;-81
2021/10/12 05:28:15;;;;;;;1.67;1.48;;;;;;;;;;4987838;28;20219;-80
2021/10/12 05:30:43;;;;;;;1.88;1.00;;;;;;;;;;4995013;28;20192;-80
2021/10/12 05:33:13;;;;;;;1.50;0.90;;;;;;;;;;4987854;28;20197;-81
2021/10/12 05:35:41;;;;;;;3.30;1.48;;;;;;;;;;4975623;28;20688;-80
2021/10/12 05:38:09;;;;;;;3.83;1.15;;;;;;;;;;4988880;28;20230;-80
2021/10/12 05:40:37;;;;;;;1.27;1.15;;;;;;;;;;4994724;28;20667;-81
2021/10/12 05:43:05;;;;;;;2.40;1.27;;;;;;;;;;4994415;28;20220;-81
2021/10/12 05:45:33;;;;;;;1.15;1.02;;;;;;;;;;4994822;28;20574;-81
2021/10/12 05:48:01;;;;;;;1.40;1.23;;;;;;;;;;4994193;28;20219;-81
2021/10/12 05:50:29;;;;;;;1.80;1.00;;;;;;;;;;4994583;28;20192;-81
2021/10/12 05:53:00;;;;;;;1.20;1.10;;;;;;;;;;4994093;28;20228;-81
2021/10/12 05:55:34;;;;;;;2.13;1.33;;;;;;;;;;4994505;28;20278;-81
2021/10/12 05:58:11;;;;;;;1.40;1.30;;;;;;;;;;4982439;28;20596;-81
2021/10/12 06:00:38;;;;;;;2.05;1.17;;;;;;;;;;4985471;28;20681;-81
2021/10/12 06:03:06;;;;;;;1.20;1.13;;;;;;;;;;4976625;28;20224;-81
2021/10/12 06:05:35;;;;;;;1.20;1.10;;;;;;;;;;4994349;28;20721;-81
2021/10/12 06:08:02;;;;;;;1.52;1.40;;;;;;;;;;4994006;28;20698;-81
2021/10/12 06:10:30;;;;;;;1.38;1.27;;;;;;;;;;4993969;28;20689;-81
2021/10/12 06:12:58;;;;;;;1.88;1.40;;;;;;;;;;4994001;28;20203;-81
2021/10/12 06:15:27;;;;;;;2.83;1.48;;;;;;;;;;4994211;28;20254;-81
2021/10/12 06:17:54;;;;;;;1.65;1.27;;;;;;;;;;4993867;28;20223;-81
2021/10/12 06:20:21;;;;;;;1.60;1.50;;;;;;;;;;4979622;28;20192;-81
2021/10/12 06:22:49;;;;;;;1.17;1.10;;;;;;;;;;4974210;28;20208;-82
2021/10/12 06:25:16;;;;;;;2.88;1.30;;;;;;;;;;4974008;28;20216;-81
2021/10/12 06:27:44;;;;;;;2.05;1.50;;;;;;;;;;4974166;28;20247;-81
2021/10/12 06:30:13;;;;;;;1.30;1.20;;;;;;;;;;4974372;28;20204;-81
2021/10/12 06:32:41;;;;;;;4.75;1.92;;;;;;;;;;4974514;28;20185;-81
2021/10/12 06:35:10;;;;;;;1.77;1.40;;;;;;;;;;4954740;29;20644;-81
2021/10/12 06:37:37;;;;;;;3.13;1.65;;;;;;;;;;4954845;29;20228;-81
2021/10/12 06:40:06;;;;;;;3.08;1.50;;;;;;;;;;4971266;28;20193;-81
2021/10/12 06:42:34;;;;;;;1.67;1.40;;;;;;;;;;4973796;28;20220;-81
2021/10/12 06:45:02;;;;;;;2.33;1.20;;;;;;;;;;4977198;28;20195;-82
2021/10/12 06:47:29;;;;;;;3.08;1.45;;;;;;;;;;4987269;28;20703;-82
2021/10/12 06:49:58;;;;;;;1.30;1.20;;;;;;;;;;4973563;28;20586;-82
2021/10/12 06:52:26;;;;;;;2.65;1.30;;;;;;;;;;4973017;28;20268;-81
2021/10/12 06:54:53;;;;;;;1.52;1.42;;;;;;;;;;4972807;28;20204;-82
2021/10/12 06:57:21;;;;;;;2.90;1.52;;;;;;;;;;4972925;28;20224;-82
2021/10/12 06:59:49;;;;;;;0.98;0.98;;;;;;;;;;4971916;28;20196;-81
2021/10/12 07:02:16;;;;;;;1.33;1.23;;;;;;;;;;4972362;28;20274;-81
2021/10/12 07:04:44;;;;;;;2.67;1.15;;;;;;;;;;4972523;28;20204;-80
2021/10/12 07:07:13;;;;;;;1.35;1.25;;;;;;;;;;4972975;28;20745;-80
2021/10/12 07:09:40;;;;;;;2.45;1.60;;;;;;;;;;4981666;28;20192;-80
2021/10/12 07:12:08;;;;;;;2.25;2.05;;;;;;;;;;4993190;28;20200;-79
2021/10/12 07:14:36;;;;;;;1.83;1.70;;;;;;;;;;4990667;28;20198;-80
2021/10/12 07:17:04;;;;;;;1.88;1.73;;;;;;;;;;4952629;29;20582;-80
2021/10/12 07:19:34;;;;;;;3.22;1.60;;;;;;;;;;4966434;28;20192;-80
2021/10/12 07:22:01;;;;;;;2.80;1.30;;;;;;;;;;4971361;28;20271;-79
2021/10/12 07:24:33;;;;;;;1.50;1.38;;;;;;;;;;4972680;28;20212;-80
2021/10/12 07:27:01;;;;;;;1.55;1.45;;;;;;;;;;4973269;28;20193;-80
2021/10/12 07:29:28;;;;;;;1.65;1.30;;;;;;;;;;4973313;28;20223;-80
2021/10/12 07:31:56;;;;;;;2.20;1.50;;;;;;;;;;4978541;28;20680;-81
2021/10/12 07:34:23;;;;;;;1.17;1.08;;;;;;;;;;4991644;28;20217;-81
2021/10/12 07:36:51;;;;;;;1.35;1.15;;;;;;;;;;4992454;28;20635;-80
2021/10/12 07:39:18;;;;;;;1.55;1.20;;;;;;;;;;4984493;28;20204;-80
2021/10/12 07:41:47;;;;;;;1.67;1.20;;;;;;;;;;4972911;28;20188;-81
2021/10/12 07:44:14;;;;;;;1.38;1.10;;;;;;;;;;4986252;28;20203;-81
2021/10/12 07:46:42;;;;;;;1.63;1.52;;;;;;;;;;4991643;28;20191;-81
2021/10/12 07:49:09;;;;;;;2.10;1.30;;;;;;;;;;4992271;28;20232;-80
2021/10/12 07:51:37;;;;;;;2.33;1.25;;;;;;;;;;4953371;28;1090885;-80
2021/10/12 07:54:09;;;;;;;1.50;1.20;;;;;;;;;;4992924;28;20659;-80
2021/10/12 07:56:37;;;;;;;2.25;1.30;;;;;;;;;;4993576;28;20529;-80
2021/10/12 07:59:08;;;;;;;1.92;1.20;;;;;;;;;;4993280;28;20231;-81
2021/10/12 08:01:38;;;;;;;1.45;1.17;;;;;;;;;;4992926;28;20220;-81
2021/10/12 08:04:06;;;;;;;1.35;1.25;;;;;;;;;;4993314;28;20226;-82
2021/10/12 08:06:33;;;;;;;2.28;1.38;;;;;;;;;;4992949;28;20580;-79
2021/10/12 08:09:01;;;;;;;1.38;1.05;;;;;;;;;;4993280;28;20227;-81
2021/10/12 08:11:28;;;;;;;1.92;1.42;;;;;;;;;;4995971;28;20214;-80
2021/10/12 08:14:00;;;;;;;2.58;1.60;;;;;;;;;;4997141;28;20203;-79
2021/10/12 08:16:30;;;;;;;2.75;1.67;;;;;;;;;;4997251;28;20188;-79
2021/10/12 08:18:59;;;;;;;1.95;1.60;;;;;;;;;;4997293;28;20219;-79
2021/10/12 08:21:28;;;;;;;0.90;0.90;;;;;;;;;;4996918;28;20215;-80
2021/10/12 08:23:57;;;;;;;1.58;1.30;;;;;;;;;;4996524;28;20729;-80
2021/10/12 08:26:25;;;;;;;1.67;1.48;;;;;;;;;;4996944;28;20212;-80
2021/10/12 08:28:53;;;;;;;1.00;1.00;;;;;;;;;;4995942;28;20235;-81
2021/10/12 08:31:21;;;;;;;1.48;1.30;;;;;;;;;;4996786;28;20192;-81
2021/10/12 08:33:49;;;;;;;2.55;1.30;;;;;;;;;;4984707;28;20283;-81
2021/10/12 08:36:17;;;;;;;1.88;1.40;;;;;;;;;;4977377;28;20216;-82
2021/10/12 08:38:46;;;;;;;2.35;1.30;;;;;;;;;;4978676;28;20232;-81
2021/10/12 08:41:17;;;;;;;2.47;1.20;;;;;;;;;;4978260;28;20204;-81
2021/10/12 08:43:44;;;;;;;1.40;1.30;;;;;;;;;;4978852;28;20232;-82
2021/10/12 08:46:13;;;;;;;1.17;1.15;;;;;;;;;;4977559;28;20236;-81
2021/10/12 08:48:40;;;;;;;2.63;1.48;;;;;;;;;;4978247;28;20212;-81
2021/10/12 08:51:10;;;;;;;0.80;0.80;;;;;;;;;;4976523;28;20184;-82
2021/10/12 08:53:38;;;;;;;2.08;1.10;;;;;;;;;;4958753;29;20211;-82
2021/10/12 08:56:07;;;;;;;2.88;1.63;;;;;;;;;;4959274;29;20200;-81
2021/10/12 08:58:35;;;;;;;1.75;1.48;;;;;;;;;;4959258;29;20232;-82
2021/10/12 09:01:09;;;;;;;1.42;1.38;;;;;;;;;;4958369;29;20225;-82
2021/10/12 09:03:46;;;;;;;1.10;1.10;;;;;;;;;;4958737;29;20300;-82
2021/10/12 09:06:15;;;;;;;1.50;1.40;;;;;;;;;;4959292;29;20190;-81
2021/10/12 09:08:42;;;;;;;1.40;1.30;;;;;;;;;;4959027;29;20228;-82
2021/10/12 09:11:23;;;;;;;1.65;1.52;;;;;;;;;;4959079;29;20189;-82
2021/10/12 09:13:53;;;;;;;1.38;1.27;;;;;;;;;;4958218;29;20192;-81
2021/10/12 09:16:21;;;;;;;1.33;1.23;;;;;;;;;;4958077;29;20216;-81
2021/10/12 09:18:54;;;;;;;1.58;1.48;;;;;;;;;;4957828;29;20315;-82
2021/10/12 09:21:25;;;;;;;1.20;1.10;;;;;;;;;;4957643;28;20236;-81
2021/10/12 09:24:02;;;;;;;1.80;1.05;;;;;;;;;;4957396;29;20734;-82
2021/10/12 09:26:33;;;;;;;1.15;1.10;;;;;;;;;;4957308;29;20189;-82
2021/10/12 09:29:03;;;;;;;1.40;1.27;;;;;;;;;;4957659;29;20263;-82
2021/10/12 09:31:38;;;;;;;1.13;1.02;;;;;;;;;;4958089;29;20276;-81
2021/10/12 09:34:08;;;;;;;1.25;1.20;;;;;;;;;;4958282;29;20189;-82
2021/10/12 09:36:40;;;;;;;3.05;1.42;;;;;;;;;;4957901;29;20284;-82
2021/10/12 09:39:14;;;;;;;1.35;1.33;;;;;;;;;;4957310;29;20223;-82
2021/10/12 09:41:42;;;;;;;1.40;1.30;;;;;;;;;;4957843;29;20196;-82
2021/10/12 09:44:15;;;;;;;1.10;1.08;;;;;;;;;;4957675;29;20252;-82
2021/10/12 09:46:46;;;;;;;1.10;1.10;;;;;;;;;;4957706;29;20196;-82
2021/10/12 09:49:19;;;;;;;1.25;1.15;;;;;;;;;;4957455;29;20209;-82
2021/10/12 09:52:03;;;;;;;1.58;1.48;;;;;;;;;;4959490;28;20229;-82
2021/10/12 09:54:33;;;;;;;1.20;1.10;;;;;;;;;;4957452;29;20620;-81
2021/10/12 09:57:02;;;;;;;1.00;0.90;;;;;;;;;;4957493;29;20202;-82
2021/10/12 09:59:30;;;;;;;1.25;1.15;;;;;;;;;;4956972;29;20181;-82
2021/10/12 10:01:59;;;;;;;1.10;1.00;;;;;;;;;;4957125;29;20228;-81
2021/10/12 10:04:28;;;;;;;1.17;1.17;;;;;;;;;;4956865;29;20214;-81
2021/10/12 10:07:06;;;;;;;1.33;1.00;;;;;;;;;;4956685;29;20201;-81
2021/10/12 10:09:35;;;;;;;0.77;0.70;;;;;;;;;;4956971;29;20195;-81
2021/10/12 10:12:03;;;;;;;1.15;1.15;;;;;;;;;;4956643;29;20189;-82
2021/10/12 10:14:34;;;;;;;1.23;1.13;;;;;;;;;;4955699;29;20209;-81
2021/10/12 10:17:02;;;;;;;1.10;1.10;;;;;;;;;;4955468;29;20672;-81
2021/10/12 10:19:32;;;;;;;1.40;1.30;;;;;;;;;;4956617;28;20679;-81
2021/10/12 10:21:59;;;;;;;1.70;1.60;;;;;;;;;;4957580;29;20278;-81
2021/10/12 10:24:48;;;;;;;1.90;0.98;;;;;;;;;;4957199;29;20212;-82
2021/10/12 10:27:33;;;;;;;1.17;1.17;;;;;;;;;;4957180;29;20711;-81
2021/10/12 10:30:24;;;;;;;1.08;1.08;;;;;;;;;;4956447;29;20672;-82
2021/10/12 10:32:54;;;;;;;1.15;1.10;;;;;;;;;;4956904;28;20569;-81
2021/10/12 10:35:40;;;;;;;1.30;1.20;;;;;;;;;;4956898;29;20201;-81
2021/10/12 10:38:29;;;;;;;1.48;1.38;;;;;;;;;;4957850;29;20229;-82
2021/10/12 10:41:27;;;;;;;3.58;1.70;;;;;;;;;;4956320;29;20195;-81
2021/10/12 10:44:05;;;;;;;1.17;1.17;;;;;;;;;;4956201;29;20185;-81
2021/10/12 10:46:43;;;;;;;1.50;1.40;;;;;;;;;;4956639;29;20193;-82
2021/10/12 10:49:14;;;;;;;1.95;1.85;;;;;;;;;;4955955;29;20201;-82
2021/10/12 10:51:51;;;;;;;1.52;1.42;;;;;;;;;;4955327;28;20230;-81
2021/10/12 10:55:03;;;;;;;1.33;1.23;;;;;;;;;;4955450;29;20196;-81
2021/10/12 10:57:32;;;;;;;1.40;1.30;;;;;;;;;;4952118;29;20239;-81
2021/10/12 11:00:26;;;;;;;1.50;1.40;;;;;;;;;;4955026;29;20204;-82
2021/10/12 11:02:55;;;;;;;2.35;1.88;;;;;;;;;;4955063;29;20220;-81
2021/10/12 11:05:40;;;;;;;2.47;1.60;;;;;;;;;;4955002;29;20696;-81
2021/10/12 11:08:19;;;;;;;1.48;1.38;;;;;;;;;;4955392;29;20707;-83
2021/10/12 11:10:50;;;;;;;1.65;1.55;;;;;;;;;;4955344;29;20675;-82
2021/10/12 11:13:34;;;;;;;1.10;1.10;;;;;;;;;;4956138;29;20212;-83
2021/10/12 11:16:03;;;;;;;2.05;1.20;;;;;;;;;;4955743;29;20200;-83
2021/10/12 11:18:31;;;;;;;0.80;0.80;;;;;;;;;;4955737;29;20220;-82
2021/10/12 11:21:02;;;;;;;1.33;0.75;;;;;;;;;;4954960;29;20284;-81
2021/10/12 11:23:33;;;;;;;0.60;0.60;;;;;;;;;;4955150;29;20185;-81
2021/10/12 11:26:07;;;;;;;0.70;0.70;;;;;;;;;;4954776;29;20216;-82
2021/10/12 11:28:39;;;;;;;1.60;0.50;;;;;;;;;;4954259;29;20231;-82
2021/10/12 11:31:09;;;;;;;0.75;0.75;;;;;;;;;;4953914;29;20192;-82
2021/10/12 11:33:40;;;;;;;0.43;0.43;;;;;;;;;;4954556;29;20220;-81
2021/10/12 11:36:10;;;;;;;0.80;0.80;;;;;;;;;;4954548;29;20347;-81
2021/10/12 11:38:42;;;;;;;1.10;1.00;;;;;;;;;;4953777;29;20993;-81
2021/10/12 11:41:16;;;;;;;5.55;2.35;;;;;;;;;;4954399;29;20219;-81
2021/10/12 11:43:46;;;;;;;0.70;0.70;;;;;;;;;;4954217;29;20193;-80
2021/10/12 11:46:24;;;;;;;0.85;0.75;;;;;;;;;;4957465;28;20216;-82
2021/10/12 11:48:52;;;;;;;0.73;0.73;;;;;;;;;;4958932;29;20229;-83
2021/10/12 11:51:23;;;;;;;0.68;0.68;;;;;;;;;;4958522;28;20726;-81
2021/10/12 11:53:52;;;;;;;0.75;0.75;;;;;;;;;;4959062;29;20679;-81
2021/10/12 11:56:21;;;;;;;1.25;0.80;;;;;;;;;;4958472;29;20640;-81
2021/10/12 11:58:56;;;;;;;0.77;0.77;;;;;;;;;;4958270;29;20217;-82
2021/10/12 12:01:29;;;;;;;0.88;0.88;;;;;;;;;;4957912;29;20203;-81
2021/10/12 12:03:58;;;;;;;0.75;0.75;;;;;;;;;;4958059;29;20189;-81
2021/10/12 12:06:28;;;;;;;0.68;0.68;;;;;;;;;;4959022;29;20710;-83
2021/10/12 12:08:59;;;;;;;0.52;0.52;;;;;;;;;;4962276;29;20255;-81
2021/10/12 12:11:30;;;;;;;0.60;0.60;;;;;;;;;;4962408;29;20196;-82
2021/10/12 12:14:03;;;;;;;0.70;0.70;;;;;;;;;;4962261;29;20222;-83
2021/10/12 12:16:33;;;;;;;0.70;0.70;;;;;;;;;;4962477;29;20201;-83
2021/10/12 12:19:02;;;;;;;0.73;0.73;;;;;;;;;;4967187;29;20217;-82
2021/10/12 12:21:33;;;;;;;0.60;0.60;;;;;;;;;;4964997;29;20189;-82
2021/10/12 12:24:02;;;;;;;0.50;0.50;;;;;;;;;;4957140;29;20189;-81
2021/10/12 12:26:32;;;;;;;0.45;0.45;;;;;;;;;;4957271;29;20219;-82
2021/10/12 12:29:19;;;;;;;0.47;0.47;;;;;;;;;;4939935;29;20234;-82
2021/10/12 12:31:52;;;;;;;0.52;0.52;;;;;;;;;;4948537;29;20571;-82
2021/10/12 12:34:41;;;;;;;0.47;0.47;;;;;;;;;;4937975;29;20214;-82
2021/10/12 12:37:09;;;;;;;0.40;0.40;;;;;;;;;;4938020;29;20218;-82
2021/10/12 12:39:41;;;;;;;0.60;0.60;;;;;;;;;;4956858;29;20665;-82
2021/10/12 12:42:25;;;;;;;0.70;0.70;;;;;;;;;;4957085;29;20193;-81
2021/10/12 12:45:10;;;;;;;0.60;0.60;;;;;;;;;;4956676;28;20697;-81
2021/10/12 12:47:38;;;;;;;0.60;0.60;;;;;;;;;;4950496;29;20726;-81
2021/10/12 12:50:10;;;;;;;0.80;0.80;;;;;;;;;;4937861;29;20205;-82
2021/10/12 12:52:38;;;;;;;0.63;0.63;;;;;;;;;;4937340;29;20724;-82
2021/10/12 12:55:06;;;;;;;0.70;0.70;;;;;;;;;;4937276;29;20209;-81
2021/10/12 12:57:34;;;;;;;0.63;0.63;;;;;;;;;;4937269;29;20228;-82
2021/10/12 13:00:13;;;;;;;2.78;0.88;;;;;;;;;;4937071;29;20581;-82
2021/10/12 13:02:41;;;;;;;0.80;0.80;;;;;;;;;;4937631;29;20198;-81
2021/10/12 13:05:09;;;;;;;1.00;1.00;;;;;;;;;;4954486;29;20201;-81
2021/10/12 13:07:36;;;;;;;0.68;0.68;;;;;;;;;;4956819;29;20225;-81
2021/10/12 13:10:04;;;;;;;0.68;0.68;;;;;;;;;;4956542;29;20573;-81
2021/10/12 13:12:32;;;;;;;1.40;1.00;;;;;;;;;;4956340;29;20264;-81
2021/10/12 13:14:59;;;;;;;1.02;1.02;;;;;;;;;;4956545;29;20220;-81
2021/10/12 13:17:28;;;;;;;1.00;1.00;;;;;;;;;;4950642;29;20586;-82
2021/10/12 13:19:56;;;;;;;0.50;0.50;;;;;;;;;;4936754;29;20216;-81
2021/10/12 13:22:24;;;;;;;0.98;0.88;;;;;;;;;;4937062;29;20208;-81
2021/10/12 13:24:52;;;;;;;0.60;0.60;;;;;;;;;;4937028;29;20210;-82
2021/10/12 13:27:19;;;;;;;0.50;0.50;;;;;;;;;;4936741;29;20232;-82
2021/10/12 13:29:47;;;;;;;0.70;0.70;;;;;;;;;;4937102;29;20206;-81
2021/10/12 13:32:15;;;;;;;0.57;0.57;;;;;;;;;;4936879;29;20210;-81
2021/10/12 13:34:44;;;;;;;1.13;0.95;;;;;;;;;;4936931;29;20261;-81
2021/10/12 13:37:12;;;;;;;0.50;0.50;;;;;;;;;;4936990;29;20226;-82
2021/10/12 13:39:39;;;;;;;0.68;0.68;;;;;;;;;;4936899;29;20201;-81
2021/10/12 13:42:07;;;;;;;1.48;1.00;;;;;;;;;;4936477;29;20186;-81
2021/10/12 13:44:37;;;;;;;1.20;1.10;;;;;;;;;;4936736;29;20246;-81
2021/10/12 13:47:04;;;;;;;2.60;1.10;;;;;;;;;;4936666;29;20320;-83
2021/10/12 13:49:32;;;;;;;1.20;1.20;;;;;;;;;;4936503;29;20209;-82
2021/10/12 13:52:01;;;;;;;1.05;1.05;;;;;;;;;;4936483;29;20233;-81
2021/10/12 13:54:28;;;;;;;0.70;0.70;;;;;;;;;;4936667;29;20204;-82
2021/10/12 13:56:57;;;;;;;1.00;0.68;;;;;;;;;;4936415;29;20585;-81
2021/10/12 13:59:25;;;;;;;0.60;0.60;;;;;;;;;;4936587;29;20206;-81
2021/10/12 14:01:53;;;;;;;0.90;0.90;;;;;;;;;;4936366;29;20803;-81
2021/10/12 14:04:21;;;;;;;0.80;0.80;;;;;;;;;;4936562;29;20186;-81
2021/10/12 14:06:49;;;;;;;0.63;0.63;;;;;;;;;;4936007;29;20236;-81
2021/10/12 14:09:17;;;;;;;0.65;0.65;;;;;;;;;;4935354;29;20186;-82
2021/10/12 14:11:46;;;;;;;0.70;0.70;;;;;;;;;;4935986;29;20210;-81
2021/10/12 14:14:14;;;;;;;0.80;0.80;;;;;;;;;;4936414;29;20219;-82
2021/10/12 14:16:41;;;;;;;0.90;0.90;;;;;;;;;;4936109;29;20202;-81
2021/10/12 14:19:09;;;;;;;0.85;0.85;;;;;;;;;;4936193;29;20229;-81
2021/10/12 14:21:38;;;;;;;1.30;1.10;;;;;;;;;;4935781;29;20592;-81
2021/10/12 14:24:06;;;;;;;0.93;0.88;;;;;;;;;;4936337;29;20237;-81
2021/10/12 14:26:35;;;;;;;1.30;1.20;;;;;;;;;;4935777;29;20233;-80
2021/10/12 14:29:03;;;;;;;0.80;0.80;;;;;;;;;;4937193;29;20233;-81
2021/10/12 14:31:31;;;;;;;0.93;0.65;;;;;;;;;;4937043;29;20653;-80
2021/10/12 14:33:58;;;;;;;2.55;0.73;;;;;;;;;;4936909;29;20197;-80
2021/10/12 14:36:28;;;;;;;0.60;0.60;;;;;;;;;;4936649;29;20197;-81
2021/10/12 14:38:55;;;;;;;0.77;0.77;;;;;;;;;;4936181;29;20717;-80
2021/10/12 14:41:22;;;;;;;0.90;0.90;;;;;;;;;;4936521;29;20227;-80
2021/10/12 14:43:51;;;;;;;0.68;0.60;;;;;;;;;;4936307;29;20217;-80
2021/10/12 14:46:20;;;;;;;0.55;0.55;;;;;;;;;;4936310;29;20214;-80
2021/10/12 14:48:47;;;;;;;1.05;0.52;;;;;;;;;;4936562;29;20228;-80
2021/10/12 14:51:15;;;;;;;1.08;0.50;;;;;;;;;;4935420;29;20248;-80
2021/10/12 14:53:42;;;;;;;1.13;1.08;;;;;;;;;;4935946;29;20210;-81
2021/10/12 14:56:10;;;;;;;1.33;0.70;;;;;;;;;;4936251;29;20203;-80
2021/10/12 14:58:37;;;;;;;0.50;0.50;;;;;;;;;;4935838;29;20222;-80